Time;durP1;ratioP1;P1;durP2;ratioP2;P2;SDS_P1;SDS_P2;PMS_P1;PMS_P2;Temp;Humidity;BMP_temperature;BMP_pressure;BME280_temperature;BME280_humidity;BME280_pressure;Samples;Min_cycle;Max_cycle;Signal;HPM_P1;HPM_P2
2023/06/18 00:02:08;;;;;;;0.20;0.20;;;23.30;91.20;;;;;;5072488;28;20473;-73
2023/06/18 00:04:34;;;;;;;0.20;0.20;;;23.40;90.60;;;;;;5072548;28;20020;-72
2023/06/18 00:06:59;;;;;;;0.10;0.10;;;23.40;90.20;;;;;;5072518;28;20446;-73
2023/06/18 00:09:25;;;;;;;0.05;0.05;;;23.30;88.60;;;;;;5070664;28;20024;-71
2023/06/18 00:11:51;;;;;;;0.00;0.00;;;23.30;89.20;;;;;;5072071;28;20024;-71
2023/06/18 00:14:18;;;;;;;0.00;0.00;;;23.30;89.90;;;;;;5072065;28;20060;-72
2023/06/18 00:16:44;;;;;;;0.30;0.30;;;23.30;88.90;;;;;;5072447;28;20025;-72
2023/06/18 00:19:09;;;;;;;0.05;0.05;;;23.30;90.10;;;;;;5071826;28;20097;-72
2023/06/18 00:21:35;;;;;;;0.10;0.10;;;23.60;88.90;;;;;;5058021;28;20100;-71
2023/06/18 00:24:01;;;;;;;0.20;0.20;;;23.50;87.40;;;;;;5072223;28;20036;-72
2023/06/18 00:26:28;;;;;;;0.00;0.00;;;23.40;89.40;;;;;;5072094;28;20036;-72
2023/06/18 00:28:55;;;;;;;0.10;0.10;;;23.40;88.60;;;;;;5071030;28;20472;-71
2023/06/18 00:31:21;;;;;;;0.00;0.00;;;23.50;88.30;;;;;;5072051;28;20058;-72
2023/06/18 00:33:46;;;;;;;0.00;0.00;;;23.40;88.50;;;;;;5071541;28;20048;-72
2023/06/18 00:36:13;;;;;;;0.00;0.00;;;23.50;88.10;;;;;;5069614;28;20495;-72
2023/06/18 00:38:43;;;;;;;0.00;0.00;;;23.40;88.10;;;;;;5071837;28;20404;-71
2023/06/18 00:41:09;;;;;;;0.22;0.22;;;23.30;88.50;;;;;;5066196;28;20440;-72
2023/06/18 00:43:36;;;;;;;0.00;0.00;;;23.20;87.70;;;;;;5045699;28;20043;-71
2023/06/18 00:46:04;;;;;;;0.00;0.00;;;23.20;88.90;;;;;;5071754;28;20083;-73
2023/06/18 00:48:35;;;;;;;0.15;0.15;;;23.30;88.30;;;;;;5071329;28;20037;-71
2023/06/18 00:51:01;;;;;;;;;;;23.30;87.30;;;;;;5071985;28;20037;-72
2023/06/18 00:53:28;;;;;;;0.20;0.20;;;23.30;88.60;;;;;;5069606;28;19905;-71
2023/06/18 00:55:56;;;;;;;0.00;0.00;;;23.20;88.60;;;;;;5071062;28;20071;-72
2023/06/18 00:58:25;;;;;;;0.00;0.00;;;23.10;89.30;;;;;;5071095;28;20025;-71
2023/06/18 01:00:51;;;;;;;0.00;0.00;;;23.20;88.80;;;;;;5070660;28;20021;-73
2023/06/18 01:03:21;;;;;;;0.00;0.00;;;23.10;88.50;;;;;;5069721;28;20094;-74
2023/06/18 01:05:54;;;;;;;0.00;0.00;;;23.00;90.20;;;;;;5071146;28;20021;-71
2023/06/18 01:08:23;;;;;;;0.30;0.30;;;23.00;89.40;;;;;;5075535;28;20028;-72
2023/06/18 01:11:00;;;;;;;0.75;0.63;;;23.10;87.80;;;;;;5074171;28;20037;-71
2023/06/18 01:13:30;;;;;;;0.20;0.20;;;23.00;89.10;;;;;;5075084;28;20366;-71
2023/06/18 01:16:03;;;;;;;0.03;0.03;;;22.90;89.00;;;;;;5075497;28;20429;-71
2023/06/18 01:18:36;;;;;;;0.00;0.00;;;22.80;89.80;;;;;;5074268;28;20114;-72
2023/06/18 01:21:09;;;;;;;0.10;0.10;;;23.10;89.60;;;;;;5074619;28;20033;-71
2023/06/18 01:24:11;;;;;;;0.35;0.35;;;23.10;88.10;;;;;;5073729;28;20032;-72
2023/06/18 01:26:38;;;;;;;;;;;22.90;89.30;;;;;;5066911;28;20051;-71
2023/06/18 01:29:09;;;;;;;0.08;0.08;;;22.80;89.80;;;;;;5073447;28;20403;-71
2023/06/18 01:31:36;;;;;;;0.10;0.10;;;22.90;89.10;;;;;;5074899;28;20044;-71
2023/06/18 01:34:04;;;;;;;0.00;0.00;;;22.90;88.20;;;;;;5075595;28;20016;-72
2023/06/18 01:36:37;;;;;;;0.10;0.10;;;22.90;88.30;;;;;;5078829;28;20053;-71
2023/06/18 01:39:21;;;;;;;0.10;0.10;;;22.80;88.90;;;;;;5080344;28;20492;-71
2023/06/18 01:41:52;;;;;;;0.00;0.00;;;22.60;89.40;;;;;;5083169;28;20024;-72
2023/06/18 01:44:21;;;;;;;0.20;0.20;;;22.60;89.80;;;;;;5081312;28;20021;-70
2023/06/18 01:46:53;;;;;;;0.00;0.00;;;22.50;90.20;;;;;;5079921;28;20513;-72
2023/06/18 01:49:20;;;;;;;0.00;0.00;;;22.40;90.20;;;;;;5081063;28;20502;-72
2023/06/18 01:51:50;;;;;;;0.00;0.00;;;22.60;90.00;;;;;;5079501;28;20037;-71
2023/06/18 01:54:17;;;;;;;0.17;0.17;;;22.40;90.00;;;;;;5082113;28;20031;-72
2023/06/18 01:56:43;;;;;;;0.00;0.00;;;22.30;90.00;;;;;;5083891;28;20108;-71
2023/06/18 01:59:11;;;;;;;0.90;0.90;;;22.20;90.40;;;;;;5081659;28;20020;-73
2023/06/18 02:01:40;;;;;;;0.00;0.00;;;22.30;90.60;;;;;;5079575;28;20020;-73
2023/06/18 02:04:06;;;;;;;0.10;0.10;;;22.40;90.10;;;;;;5075062;28;20116;-71
2023/06/18 02:06:31;;;;;;;0.00;0.00;;;22.40;90.10;;;;;;5078408;28;20044;-71
2023/06/18 02:08:57;;;;;;;0.00;0.00;;;22.30;90.10;;;;;;5083427;28;20024;-71
2023/06/18 02:11:23;;;;;;;0.30;0.30;;;22.20;90.60;;;;;;5078190;28;20044;-71
2023/06/18 02:13:49;;;;;;;0.00;0.00;;;22.10;90.50;;;;;;5074008;28;20040;-71
2023/06/18 02:16:15;;;;;;;2.08;0.55;;;22.10;90.60;;;;;;5072601;28;20021;-70
2023/06/18 02:18:41;;;;;;;0.00;0.00;;;22.20;90.90;;;;;;5073813;28;20032;-71
2023/06/18 02:21:07;;;;;;;0.03;0.03;;;22.10;90.30;;;;;;5071901;28;20012;-72
2023/06/18 02:23:33;;;;;;;0.00;0.00;;;22.10;91.00;;;;;;5072893;28;20035;-71
2023/06/18 02:26:00;;;;;;;0.03;0.03;;;22.10;90.90;;;;;;5073403;28;20028;-71
2023/06/18 02:28:26;;;;;;;0.00;0.00;;;22.10;90.80;;;;;;5057409;28;20064;-71
2023/06/18 02:30:52;;;;;;;0.00;0.00;;;22.10;90.50;;;;;;5053684;28;20041;-71
2023/06/18 02:33:18;;;;;;;0.00;0.00;;;22.10;90.60;;;;;;5053771;28;20021;-71
2023/06/18 02:35:44;;;;;;;0.00;0.00;;;22.00;91.20;;;;;;5053341;28;20017;-70
2023/06/18 02:38:10;;;;;;;0.00;0.00;;;22.00;91.30;;;;;;5035882;28;20032;-70
2023/06/18 02:40:36;;;;;;;0.00;0.00;;;22.00;90.90;;;;;;5053235;28;20032;-70
2023/06/18 02:43:05;;;;;;;0.00;0.00;;;21.90;90.70;;;;;;5053351;28;20060;-72
2023/06/18 02:45:31;;;;;;;0.00;0.00;;;21.90;91.30;;;;;;5052337;28;20063;-71
2023/06/18 02:47:58;;;;;;;0.05;0.05;;;22.10;91.40;;;;;;5050891;28;20029;-72
2023/06/18 02:50:24;;;;;;;0.10;0.10;;;22.00;91.60;;;;;;5052171;28;20051;-72
2023/06/18 02:52:51;;;;;;;0.00;0.00;;;22.00;91.60;;;;;;5050884;28;20634;-72
2023/06/18 02:55:17;;;;;;;0.00;0.00;;;22.00;91.70;;;;;;5052353;28;20021;-72
2023/06/18 02:57:46;;;;;;;0.00;0.00;;;21.80;92.00;;;;;;5052446;28;20025;-71
2023/06/18 03:00:13;;;;;;;0.00;0.00;;;22.00;91.90;;;;;;5050304;28;20017;-72
2023/06/18 03:02:42;;;;;;;0.00;0.00;;;22.00;92.00;;;;;;5051875;28;20048;-72
2023/06/18 03:05:13;;;;;;;0.00;0.00;;;22.10;91.70;;;;;;5050738;28;20017;-72
2023/06/18 03:07:39;;;;;;;0.00;0.00;;;21.90;91.50;;;;;;5051665;28;20452;-72
2023/06/18 03:10:07;;;;;;;0.03;0.03;;;22.00;91.70;;;;;;5052045;28;20029;-72
2023/06/18 03:12:34;;;;;;;0.47;0.47;;;21.90;92.10;;;;;;5051942;28;20068;-72
2023/06/18 03:15:05;;;;;;;0.00;0.00;;;21.70;91.70;;;;;;5051631;28;20029;-72
2023/06/18 03:17:31;;;;;;;0.08;0.08;;;21.70;92.40;;;;;;5051020;28;20366;-72
2023/06/18 03:19:57;;;;;;;0.00;0.00;;;21.60;92.10;;;;;;5052049;28;20017;-71
2023/06/18 03:22:25;;;;;;;0.10;0.10;;;21.70;92.50;;;;;;5050982;28;20025;-72
2023/06/18 03:24:51;;;;;;;0.30;0.28;;;21.70;92.30;;;;;;5050120;28;20531;-72
2023/06/18 03:27:17;;;;;;;0.13;0.13;;;21.70;92.80;;;;;;5051806;28;20032;-72
2023/06/18 03:29:44;;;;;;;0.00;0.00;;;21.60;92.50;;;;;;5051801;28;20460;-72
2023/06/18 03:32:11;;;;;;;0.00;0.00;;;21.60;92.50;;;;;;5034408;28;20075;-73
2023/06/18 03:34:42;;;;;;;0.00;0.00;;;21.80;92.00;;;;;;5051814;28;20031;-72
2023/06/18 03:37:08;;;;;;;0.08;0.08;;;21.80;92.10;;;;;;5051232;28;20033;-73
2023/06/18 03:39:34;;;;;;;0.00;0.00;;;21.80;91.90;;;;;;5050333;28;20470;-73
2023/06/18 03:42:01;;;;;;;0.30;0.30;;;21.80;92.00;;;;;;5050271;28;20378;-73
2023/06/18 03:44:26;;;;;;;0.00;0.00;;;21.70;92.10;;;;;;5052428;28;20040;-72
2023/06/18 03:46:53;;;;;;;0.00;0.00;;;21.60;92.50;;;;;;5049858;28;20474;-73
2023/06/18 03:49:19;;;;;;;0.00;0.00;;;21.60;92.70;;;;;;5051084;28;20059;-72
2023/06/18 03:51:45;;;;;;;0.00;0.00;;;21.60;92.30;;;;;;5050011;28;20033;-73
2023/06/18 03:54:11;;;;;;;6.40;2.63;;;21.50;92.50;;;;;;5051124;28;20021;-72
2023/06/18 03:56:37;;;;;;;2.28;1.65;;;21.40;92.20;;;;;;5052559;28;20038;-73
2023/06/18 03:59:05;;;;;;;0.05;0.05;;;21.50;92.60;;;;;;5051861;28;20051;-72
2023/06/18 04:01:31;;;;;;;0.00;0.00;;;21.50;92.50;;;;;;5048848;28;20035;-72
2023/06/18 04:03:57;;;;;;;0.00;0.00;;;21.60;92.10;;;;;;5051327;28;20025;-73
2023/06/18 04:06:23;;;;;;;0.80;0.80;;;21.60;92.00;;;;;;5050493;28;20021;-73
2023/06/18 04:08:49;;;;;;;0.38;0.38;;;21.60;92.20;;;;;;5051825;28;20028;-73
2023/06/18 04:11:15;;;;;;;0.25;0.25;;;21.60;91.80;;;;;;5049118;28;20037;-72
2023/06/18 04:13:42;;;;;;;0.20;0.20;;;21.50;92.10;;;;;;5051065;28;20017;-73
2023/06/18 04:16:10;;;;;;;1.63;0.70;;;21.70;92.00;;;;;;5050731;28;20094;-72
2023/06/18 04:18:36;;;;;;;1.65;1.17;;;21.80;90.80;;;;;;5050350;28;20013;-72
2023/06/18 04:21:03;;;;;;;0.00;0.00;;;21.80;91.20;;;;;;5032838;28;20456;-73
2023/06/18 04:23:30;;;;;;;0.55;0.55;;;21.60;91.40;;;;;;5050749;28;20087;-72
2023/06/18 04:25:56;;;;;;;0.20;0.20;;;21.80;91.20;;;;;;5050232;28;20025;-72
2023/06/18 04:28:22;;;;;;;0.05;0.05;;;21.70;91.30;;;;;;5050745;28;20037;-72
2023/06/18 04:30:49;;;;;;;0.10;0.10;;;21.70;91.50;;;;;;5050115;28;20033;-72
2023/06/18 04:33:15;;;;;;;4.22;2.17;;;21.90;90.80;;;;;;5050652;28;20048;-72
2023/06/18 04:35:42;;;;;;;3.60;2.17;;;21.60;92.10;;;;;;5034375;28;20025;-72
2023/06/18 04:38:11;;;;;;;2.08;1.65;;;20.90;93.50;;;;;;5050438;28;20409;-72
2023/06/18 04:40:37;;;;;;;2.70;2.10;;;20.80;94.30;;;;;;5049918;28;20036;-72
2023/06/18 04:43:03;;;;;;;0.20;0.20;;;21.00;92.70;;;;;;5055023;28;20041;-73
2023/06/18 04:45:35;;;;;;;1.33;0.98;;;21.30;90.90;;;;;;5054070;28;20029;-72
2023/06/18 04:48:03;;;;;;;0.40;0.40;;;21.40;91.10;;;;;;5052676;28;20067;-72
2023/06/18 04:50:29;;;;;;;9.18;5.05;;;21.20;91.30;;;;;;5054265;28;20032;-73
2023/06/18 04:52:56;;;;;;;0.20;0.20;;;21.50;91.90;;;;;;5054653;28;20629;-72
2023/06/18 04:55:23;;;;;;;0.10;0.10;;;21.60;91.60;;;;;;5054819;28;20032;-72
2023/06/18 04:57:52;;;;;;;0.57;0.57;;;21.80;91.10;;;;;;5054589;28;20037;-72
2023/06/18 05:00:19;;;;;;;0.00;0.00;;;21.80;91.60;;;;;;5054120;28;20024;-72
2023/06/18 05:02:47;;;;;;;0.10;0.10;;;22.00;93.10;;;;;;5053800;28;20040;-73
2023/06/18 05:05:13;;;;;;;0.00;0.00;;;22.00;93.80;;;;;;5054530;28;20021;-73
2023/06/18 05:07:39;;;;;;;0.00;0.00;;;21.90;95.20;;;;;;5053018;28;20032;-72
2023/06/18 05:10:05;;;;;;;0.00;0.00;;;21.90;94.40;;;;;;5054594;28;20036;-72
2023/06/18 05:12:33;;;;;;;0.00;0.00;;;22.10;95.60;;;;;;5053740;28;20021;-72
2023/06/18 05:14:59;;;;;;;0.10;0.10;;;21.90;94.30;;;;;;5054153;28;20215;-73
2023/06/18 05:17:24;;;;;;;0.00;0.00;;;22.10;94.40;;;;;;5055362;28;20044;-72
2023/06/18 05:19:52;;;;;;;0.00;0.00;;;22.10;96.00;;;;;;5053760;28;20036;-73
2023/06/18 05:22:19;;;;;;;0.10;0.10;;;22.20;99.90;;;;;;5053019;28;20017;-72
2023/06/18 05:24:45;;;;;;;0.00;0.00;;;21.80;98.40;;;;;;5053996;28;20167;-72
2023/06/18 05:27:10;;;;;;;0.28;0.28;;;21.80;99.90;;;;;;5053990;28;20029;-72
2023/06/18 05:29:38;;;;;;;0.03;0.03;;;21.80;99.90;;;;;;5052980;28;20418;-73
2023/06/18 05:32:04;;;;;;;0.00;0.00;;;21.80;99.90;;;;;;5054437;28;20044;-72
2023/06/18 05:34:31;;;;;;;2.30;1.42;;;21.60;99.90;;;;;;5053707;28;20104;-72
2023/06/18 05:36:57;;;;;;;0.00;0.00;;;21.60;99.90;;;;;;5053774;28;20174;-72
2023/06/18 05:39:23;;;;;;;0.05;0.05;;;21.70;99.90;;;;;;5052891;28;20041;-72
2023/06/18 05:41:50;;;;;;;0.47;0.47;;;21.50;99.90;;;;;;5053182;28;20032;-72
2023/06/18 05:44:18;;;;;;;0.00;0.00;;;21.50;99.90;;;;;;5037171;28;20040;-72
2023/06/18 05:46:43;;;;;;;0.00;0.00;;;21.60;99.90;;;;;;5054995;28;20032;-72
2023/06/18 05:49:10;;;;;;;0.00;0.00;;;21.80;99.90;;;;;;5053008;28;20509;-72
2023/06/18 05:51:36;;;;;;;0.00;0.00;;;21.70;99.90;;;;;;5053758;28;20028;-71
2023/06/18 05:54:04;;;;;;;0.03;0.03;;;21.80;99.90;;;;;;5052157;28;20024;-72
2023/06/18 05:56:30;;;;;;;0.00;0.00;;;21.90;99.90;;;;;;5054585;28;20492;-72
2023/06/18 05:58:56;;;;;;;0.00;0.00;;;22.20;99.90;;;;;;5053578;28;20116;-72
2023/06/18 06:01:27;;;;;;;0.00;0.00;;;22.10;99.90;;;;;;5053754;28;20063;-72
2023/06/18 06:03:53;;;;;;;0.00;0.00;;;22.10;99.90;;;;;;5053628;28;20017;-72
2023/06/18 06:06:20;;;;;;;0.00;0.00;;;22.20;99.90;;;;;;5036889;28;20041;-72
2023/06/18 06:08:46;;;;;;;0.08;0.08;;;22.20;99.90;;;;;;5053356;28;20024;-72
2023/06/18 06:11:13;;;;;;;0.00;0.00;;;22.20;99.90;;;;;;5052156;28;20099;-72
2023/06/18 06:13:39;;;;;;;0.40;0.40;;;22.20;99.90;;;;;;5036453;28;20469;-72
2023/06/18 06:16:08;;;;;;;0.10;0.10;;;22.20;99.90;;;;;;5052740;28;20029;-72
2023/06/18 06:18:34;;;;;;;0.28;0.28;;;22.10;99.90;;;;;;5054445;28;20025;-72
2023/06/18 06:21:00;;;;;;;0.10;0.10;;;21.80;99.90;;;;;;5053303;28;20033;-72
2023/06/18 06:23:26;;;;;;;0.20;0.20;;;21.90;99.90;;;;;;5052890;28;20021;-72
2023/06/18 06:25:52;;;;;;;0.20;0.20;;;21.90;99.90;;;;;;5053477;28;20036;-72
2023/06/18 06:28:18;;;;;;;0.00;0.00;;;22.00;99.90;;;;;;5052196;28;20056;-73
2023/06/18 06:30:44;;;;;;;0.93;0.40;;;22.20;99.90;;;;;;5052747;28;20032;-73
2023/06/18 06:33:10;;;;;;;0.10;0.10;;;22.50;99.90;;;;;;5052652;28;20167;-73
2023/06/18 06:35:38;;;;;;;0.00;0.00;;;22.50;99.90;;;;;;5052022;28;20017;-72
2023/06/18 06:38:06;;;;;;;0.13;0.13;;;22.80;99.90;;;;;;5052172;28;20040;-72
2023/06/18 06:40:32;;;;;;;0.15;0.15;;;22.70;99.90;;;;;;5051476;28;20017;-72
2023/06/18 06:42:58;;;;;;;1.33;1.33;;;22.50;99.90;;;;;;5051876;28;20452;-73
2023/06/18 06:45:27;;;;;;;0.10;0.10;;;22.30;99.90;;;;;;5052581;28;20035;-72
2023/06/18 06:48:11;;;;;;;0.20;0.20;;;22.30;99.90;;;;;;5040316;28;20111;-72
2023/06/18 06:50:37;;;;;;;1.00;0.80;;;22.30;99.90;;;;;;5054017;28;20448;-71
2023/06/18 06:53:23;;;;;;;0.00;0.00;;;22.50;99.90;;;;;;5045440;28;21688;-72
2023/06/18 06:55:49;;;;;;;0.10;0.10;;;22.60;99.90;;;;;;5045826;28;20125;-72
2023/06/18 06:58:18;;;;;;;0.03;0.03;;;22.80;99.90;;;;;;5047450;28;20048;-73
2023/06/18 07:00:43;;;;;;;0.10;0.10;;;23.20;99.90;;;;;;5050827;28;20472;-72
2023/06/18 07:03:09;;;;;;;0.20;0.20;;;23.70;99.90;;;;;;5050952;28;20017;-72
2023/06/18 07:05:35;;;;;;;0.45;0.38;;;23.60;99.90;;;;;;5046156;28;20056;-72
2023/06/18 07:08:02;;;;;;;0.20;0.20;;;23.50;99.90;;;;;;5052283;28;20536;-72
2023/06/18 07:10:28;;;;;;;0.00;0.00;;;23.30;99.90;;;;;;5051878;28;20493;-72
2023/06/18 07:12:54;;;;;;;0.25;0.25;;;23.20;99.90;;;;;;5052017;28;20159;-73
2023/06/18 07:15:20;;;;;;;0.10;0.10;;;23.20;99.90;;;;;;5051845;28;20056;-72
2023/06/18 07:17:46;;;;;;;0.38;0.10;;;23.20;99.90;;;;;;5038611;28;20068;-72
2023/06/18 07:20:11;;;;;;;0.73;0.68;;;23.40;99.90;;;;;;5036985;28;20679;-73
2023/06/18 07:22:37;;;;;;;0.22;0.20;;;23.10;99.90;;;;;;5048667;28;20017;-73
2023/06/18 07:25:03;;;;;;;0.47;0.47;;;22.90;99.90;;;;;;5049882;28;20025;-72
2023/06/18 07:27:29;;;;;;;0.20;0.10;;;22.80;99.90;;;;;;5050279;28;20025;-72
2023/06/18 07:29:55;;;;;;;0.32;0.32;;;23.00;99.90;;;;;;5051538;28;20141;-73
2023/06/18 07:32:21;;;;;;;0.17;0.13;;;22.90;99.90;;;;;;5051827;28;20037;-72
2023/06/18 07:34:46;;;;;;;1.33;1.23;;;22.80;99.90;;;;;;5051784;28;20040;-71
2023/06/18 07:37:12;;;;;;;0.10;0.10;;;22.70;99.90;;;;;;5051889;28;20430;-72
2023/06/18 07:39:38;;;;;;;2.13;1.85;;;22.60;99.90;;;;;;5051584;28;20024;-73
2023/06/18 07:42:04;;;;;;;0.47;0.30;;;22.40;99.90;;;;;;5050130;28;20470;-72
2023/06/18 07:44:30;;;;;;;0.50;0.50;;;22.30;99.90;;;;;;5051862;28;20040;-72
2023/06/18 07:46:55;;;;;;;0.13;0.13;;;22.20;99.90;;;;;;5052018;28;20033;-73
2023/06/18 07:49:21;;;;;;;0.32;0.32;;;22.20;99.90;;;;;;5050096;28;20020;-73
2023/06/18 07:51:48;;;;;;;0.10;0.10;;;22.20;99.90;;;;;;5047664;28;20029;-72
2023/06/18 07:54:13;;;;;;;0.40;0.40;;;22.20;99.90;;;;;;5038799;28;20040;-72
2023/06/18 07:56:39;;;;;;;0.20;0.20;;;22.20;99.90;;;;;;5051903;28;20021;-72
2023/06/18 07:59:05;;;;;;;2.05;1.70;;;22.30;99.90;;;;;;5051722;28;20029;-72
2023/06/18 08:01:32;;;;;;;0.43;0.43;;;22.00;99.90;;;;;;5050317;28;20166;-73
2023/06/18 08:03:58;;;;;;;0.20;0.15;;;22.20;99.90;;;;;;5048273;28;20115;-73
2023/06/18 08:06:24;;;;;;;0.32;0.32;;;22.50;99.90;;;;;;5049448;28;20436;-73
2023/06/18 08:08:50;;;;;;;0.38;0.38;;;22.60;99.90;;;;;;5048508;28;20029;-73
2023/06/18 08:11:17;;;;;;;0.45;0.45;;;22.50;99.90;;;;;;5049972;28;20036;-73
2023/06/18 08:13:44;;;;;;;0.10;0.10;;;22.50;99.90;;;;;;5047064;28;20029;-73
2023/06/18 08:16:10;;;;;;;0.08;0.08;;;22.60;99.90;;;;;;5038633;28;20034;-73
2023/06/18 08:18:37;;;;;;;0.00;0.00;;;22.80;99.90;;;;;;5050969;28;20109;-73
2023/06/18 08:21:03;;;;;;;0.40;0.40;;;22.70;99.90;;;;;;5051303;28;20029;-73
2023/06/18 08:23:29;;;;;;;1.10;1.00;;;22.60;99.90;;;;;;5050734;28;20429;-73
2023/06/18 08:25:55;;;;;;;0.10;0.10;;;22.60;99.90;;;;;;5051055;28;20051;-73
2023/06/18 08:28:21;;;;;;;1.65;1.02;;;22.60;99.90;;;;;;5051193;28;20033;-72
2023/06/18 08:30:47;;;;;;;0.00;0.00;;;22.80;99.90;;;;;;5050954;28;20033;-74
2023/06/18 08:33:13;;;;;;;1.55;1.45;;;22.70;99.90;;;;;;5050877;28;20071;-73
2023/06/18 08:35:39;;;;;;;0.00;0.00;;;22.60;99.90;;;;;;5049913;28;20029;-73
2023/06/18 08:38:05;;;;;;;0.00;0.00;;;22.80;99.90;;;;;;5050878;28;20478;-73
2023/06/18 08:41:05;;;;;;;0.45;0.25;;;22.80;99.90;;;;;;5050842;28;20020;-73
2023/06/18 08:43:37;;;;;;;0.52;0.52;;;22.90;99.90;;;;;;5043567;28;20033;-72
2023/06/18 08:46:16;;;;;;;0.10;0.10;;;22.80;99.90;;;;;;5051220;28;20032;-72
2023/06/18 08:48:54;;;;;;;0.38;0.38;;;22.90;99.90;;;;;;5051297;28;20040;-71
2023/06/18 08:51:23;;;;;;;0.08;0.08;;;23.10;99.90;;;;;;5050547;28;20052;-72
2023/06/18 08:54:07;;;;;;;0.10;0.10;;;23.10;99.90;;;;;;5049594;28;20017;-76
2023/06/18 08:56:35;;;;;;;0.10;0.10;;;22.80;99.90;;;;;;5049657;28;20017;-74
2023/06/18 08:59:02;;;;;;;0.17;0.17;;;22.80;99.90;;;;;;5051345;28;20021;-75
2023/06/18 09:01:29;;;;;;;0.30;0.30;;;22.80;99.90;;;;;;5049378;28;20461;-75
2023/06/18 09:03:59;;;;;;;0.10;0.10;;;23.10;99.90;;;;;;5049807;28;20559;-75
2023/06/18 09:06:25;;;;;;;0.40;0.40;;;23.40;99.90;;;;;;5050517;28;20394;-75
2023/06/18 09:08:52;;;;;;;0.20;0.20;;;23.80;99.90;;;;;;5041982;28;20120;-75
2023/06/18 09:11:17;;;;;;;0.20;0.20;;;23.90;99.90;;;;;;5045087;28;20124;-75
2023/06/18 09:13:43;;;;;;;0.00;0.00;;;24.20;99.90;;;;;;5047581;28;20200;-76
2023/06/18 09:16:10;;;;;;;0.63;0.63;;;24.30;99.90;;;;;;5046044;28;20040;-75
2023/06/18 09:18:36;;;;;;;0.52;0.52;;;24.60;99.90;;;;;;5047113;28;20021;-78
2023/06/18 09:21:03;;;;;;;0.17;0.17;;;24.40;99.90;;;;;;5040974;28;20032;-76
2023/06/18 09:23:29;;;;;;;0.10;0.10;;;24.60;99.90;;;;;;5045938;28;20025;-77
2023/06/18 09:25:57;;;;;;;0.10;0.10;;;24.80;99.90;;;;;;5039021;28;20033;-78
2023/06/18 09:28:24;;;;;;;7.78;0.47;;;24.70;99.90;;;;;;5049221;28;20021;-78
2023/06/18 09:30:52;;;;;;;0.00;0.00;;;24.80;99.90;;;;;;5050751;28;20497;-76
2023/06/18 09:33:35;;;;;;;0.00;0.00;;;24.30;99.90;;;;;;5052385;28;20025;-78
2023/06/18 09:36:03;;;;;;;3.25;1.08;;;24.50;99.90;;;;;;5050164;28;20048;-77
2023/06/18 09:38:41;;;;;;;0.00;0.00;;;24.60;99.90;;;;;;5053622;28;20363;-74
2023/06/18 09:41:11;;;;;;;0.20;0.20;;;24.80;99.90;;;;;;5054688;28;20040;-76
2023/06/18 09:43:39;;;;;;;0.08;0.08;;;24.70;99.90;;;;;;5053596;28;20033;-76
2023/06/18 09:46:06;;;;;;;0.10;0.10;;;24.70;99.90;;;;;;5054675;28;20072;-76
2023/06/18 09:48:40;;;;;;;2.80;0.63;;;24.40;99.90;;;;;;5054312;28;20049;-76
2023/06/18 09:51:07;;;;;;;0.90;0.90;;;24.20;99.90;;;;;;5046153;28;20048;-75
2023/06/18 09:53:34;;;;;;;0.75;0.65;;;24.00;99.90;;;;;;5035754;28;20032;-76
2023/06/18 09:56:14;;;;;;;0.15;0.15;;;24.00;99.90;;;;;;5052659;28;20033;-75
2023/06/18 09:58:41;;;;;;;0.45;0.30;;;24.10;99.90;;;;;;5049719;28;20025;-75
2023/06/18 10:01:08;;;;;;;17.10;15.68;;;24.50;99.90;;;;;;5053547;28;20025;-75
2023/06/18 10:03:34;;;;;;;0.32;0.32;;;24.40;99.90;;;;;;5053471;28;20037;-75
2023/06/18 10:06:16;;;;;;;0.15;0.10;;;24.20;99.90;;;;;;5053797;28;20485;-76
2023/06/18 10:08:45;;;;;;;0.68;0.17;;;24.30;99.90;;;;;;5050751;28;20020;-75
2023/06/18 10:11:12;;;;;;;1.08;1.08;;;24.60;99.90;;;;;;5050016;28;20440;-75
2023/06/18 10:13:46;;;;;;;0.20;0.20;;;24.40;99.90;;;;;;5040869;28;20048;-75
2023/06/18 10:16:20;;;;;;;0.00;0.00;;;23.70;99.90;;;;;;5047035;28;20025;-75
2023/06/18 10:19:00;;;;;;;5.60;1.92;;;23.40;99.90;;;;;;5049331;28;20127;-75
2023/06/18 10:21:28;;;;;;;0.10;0.10;;;23.40;99.90;;;;;;5050422;28;20025;-74
2023/06/18 10:24:08;;;;;;;1.67;1.48;;;23.50;99.90;;;;;;5052955;28;20021;-75
2023/06/18 10:26:36;;;;;;;2.47;1.42;;;23.50;99.90;;;;;;5053344;28;20029;-75
2023/06/18 10:29:03;;;;;;;2.80;1.90;;;23.50;99.90;;;;;;5049581;28;20025;-75
2023/06/18 10:31:29;;;;;;;0.50;0.47;;;23.60;99.90;;;;;;5053634;28;20063;-75
2023/06/18 10:33:56;;;;;;;0.77;0.75;;;23.70;99.90;;;;;;5052607;28;20486;-76
2023/06/18 10:36:22;;;;;;;0.70;0.57;;;23.60;99.90;;;;;;5053320;28;20025;-75
2023/06/18 10:38:49;;;;;;;1.05;0.95;;;23.40;99.90;;;;;;5052453;28;20013;-75
2023/06/18 10:41:18;;;;;;;1.48;1.38;;;23.60;99.90;;;;;;5051947;28;20024;-75
2023/06/18 10:43:50;;;;;;;4.32;1.05;;;24.10;99.90;;;;;;5051792;28;20128;-75
2023/06/18 10:46:16;;;;;;;0.32;0.32;;;24.60;99.90;;;;;;5053025;28;20096;-74
2023/06/18 10:49:15;;;;;;;0.10;0.10;;;24.60;99.90;;;;;;5052485;28;20120;-75
2023/06/18 10:52:04;;;;;;;1.70;1.35;;;24.60;99.90;;;;;;5050179;28;20103;-75
2023/06/18 10:54:30;;;;;;;2.65;0.52;;;24.80;99.90;;;;;;5030630;28;20507;-74
2023/06/18 10:56:58;;;;;;;1.27;0.57;;;24.70;99.90;;;;;;5052121;28;20071;-74
2023/06/18 10:59:45;;;;;;;1.45;0.50;;;24.60;99.90;;;;;;5052171;28;20067;-75
2023/06/18 11:02:12;;;;;;;1.63;1.20;;;25.00;99.90;;;;;;5057261;28;20028;-75
2023/06/18 11:04:38;;;;;;;0.13;0.13;;;24.70;99.90;;;;;;5052241;28;20009;-75
2023/06/18 11:07:32;;;;;;;4.68;1.75;;;24.70;99.90;;;;;;5052092;28;20041;-75
2023/06/18 11:10:03;;;;;;;1.63;1.38;;;24.60;99.90;;;;;;5051254;28;20028;-75
2023/06/18 11:12:36;;;;;;;0.75;0.75;;;24.60;99.90;;;;;;5053224;28;20048;-75
2023/06/18 11:15:15;;;;;;;0.32;0.30;;;24.90;99.90;;;;;;5052165;28;20036;-75
2023/06/18 11:17:53;;;;;;;1.45;1.17;;;25.20;99.90;;;;;;5050859;28;20503;-75
2023/06/18 11:20:22;;;;;;;8.32;1.05;;;25.20;99.70;;;;;;5046606;28;20087;-75
2023/06/18 11:22:54;;;;;;;0.10;0.10;;;25.00;99.90;;;;;;5051939;28;20028;-75
2023/06/18 11:25:20;;;;;;;1.15;1.13;;;25.60;99.80;;;;;;5052041;28;20033;-75
2023/06/18 11:27:48;;;;;;;0.55;0.55;;;25.70;99.30;;;;;;5052474;28;20074;-75
2023/06/18 11:30:16;;;;;;;1.10;1.00;;;25.80;99.10;;;;;;5051912;28;20025;-74
2023/06/18 11:32:43;;;;;;;0.30;0.30;;;26.20;98.50;;;;;;5052474;28;20363;-75
2023/06/18 11:35:11;;;;;;;0.40;0.40;;;26.10;98.90;;;;;;5051935;28;20032;-74
2023/06/18 11:37:41;;;;;;;3.78;0.70;;;26.10;98.50;;;;;;5052186;28;20033;-74
2023/06/18 11:40:08;;;;;;;0.30;0.30;;;26.00;99.60;;;;;;5052344;28;20488;-74
2023/06/18 11:42:39;;;;;;;1.40;1.30;;;26.40;98.60;;;;;;5051963;28;20032;-74
2023/06/18 11:45:06;;;;;;;0.70;0.70;;;26.80;97.90;;;;;;5051598;28;20147;-75
2023/06/18 11:47:34;;;;;;;0.95;0.90;;;26.90;98.10;;;;;;5052183;28;20029;-75
2023/06/18 11:50:00;;;;;;;2.65;1.38;;;26.10;97.80;;;;;;5051376;28;20460;-75
2023/06/18 11:52:27;;;;;;;1.55;0.75;;;25.80;98.40;;;;;;5051589;28;20531;-74
2023/06/18 11:55:00;;;;;;;2.38;1.88;;;25.90;98.10;;;;;;5042528;28;20052;-75
2023/06/18 11:57:26;;;;;;;0.98;0.90;;;25.70;97.80;;;;;;5052260;28;20040;-75
2023/06/18 11:59:54;;;;;;;1.27;1.00;;;25.50;98.40;;;;;;5051318;28;20017;-75
2023/06/18 12:02:26;;;;;;;0.20;0.20;;;25.40;99.20;;;;;;5052045;28;20048;-74
2023/06/18 12:04:52;;;;;;;0.52;0.47;;;25.20;99.90;;;;;;5050152;28;20397;-75
2023/06/18 12:07:20;;;;;;;2.30;0.22;;;25.30;99.90;;;;;;5050829;28;20179;-75
2023/06/18 12:09:47;;;;;;;1.98;0.82;;;25.70;98.70;;;;;;5051794;28;20065;-74
2023/06/18 12:12:34;;;;;;;1.40;1.13;;;26.00;97.60;;;;;;5048990;28;20037;-74
2023/06/18 12:15:00;;;;;;;0.80;0.80;;;25.90;97.80;;;;;;5044384;28;20037;-74
2023/06/18 12:17:47;;;;;;;1.83;1.55;;;25.90;98.30;;;;;;5047066;28;20032;-74
2023/06/18 12:20:13;;;;;;;1.02;0.93;;;26.50;96.60;;;;;;5050195;28;20067;-75
2023/06/18 12:22:40;;;;;;;1.60;0.88;;;26.60;96.40;;;;;;5050851;28;20053;-74
2023/06/18 12:25:11;;;;;;;10.07;2.28;;;26.30;96.70;;;;;;5050210;28;20025;-75
2023/06/18 12:27:37;;;;;;;0.22;0.22;;;25.80;98.40;;;;;;5051398;28;20037;-74
2023/06/18 12:30:08;;;;;;;0.10;0.10;;;25.90;98.30;;;;;;5051416;28;20032;-75
2023/06/18 12:32:36;;;;;;;0.38;0.38;;;26.20;98.30;;;;;;5051653;28;20037;-74
2023/06/18 12:35:12;;;;;;;0.60;0.60;;;26.60;97.60;;;;;;5051451;28;20021;-75
2023/06/18 12:37:46;;;;;;;0.20;0.20;;;26.40;96.80;;;;;;5051547;28;20493;-74
2023/06/18 12:40:25;;;;;;;0.00;0.00;;;25.40;98.90;;;;;;5051967;28;20373;-74
2023/06/18 12:42:51;;;;;;;0.05;0.05;;;25.20;99.60;;;;;;5050962;28;20044;-75
2023/06/18 12:45:26;;;;;;;0.00;0.00;;;25.10;99.90;;;;;;5051764;28;20029;-74
2023/06/18 12:47:52;;;;;;;0.52;0.52;;;25.50;99.60;;;;;;5051406;28;20033;-75
2023/06/18 12:50:47;;;;;;;3.78;2.40;;;25.20;99.60;;;;;;5051222;28;20021;-74
2023/06/18 12:53:14;;;;;;;0.03;0.03;;;25.00;99.90;;;;;;5043727;28;20051;-75
2023/06/18 12:55:40;;;;;;;1.45;0.35;;;25.00;99.90;;;;;;5051317;28;20048;-74